Current Weather

DuPage County

West Chicago, Illinois (KDPA)

Report from: Thursday, August 18, 2022 11:52 PM CDT
Current time: Friday, August 19, 2022 12:47 AM CDT

Nearby weather
Weather history
Weather forecast

Temperature19.4°C (66.9°F)
Dew point16.1°C (61.0°F)
Winds Calm
Visibility10 mi. (16.1 km)
Clouds Sky clear
Altimeter29.95 in.Hg (1014 mB)
Relative humidity81 %
Density altitude734 ft. (224 m)
Sea-level pressure101.4 kPa (1014 mB, 29.93 in.Hg)
Remarks Fully automated report
System requires maintenance
Automated weather observing station with precipitation discriminator
Flight conditions Visual Meteorological Conditions
Raw dataKDPA 190452Z AUTO 00000KT 10SM CLR 19/16 A2995 RMK AO2 SLP136 T01940161 $
An unhandled exception has occurred. See browser dev tools for details. Reload 🗙